Time;durP1;ratioP1;P1;durP2;ratioP2;P2;SDS_P1;SDS_P2;PMS_P1;PMS_P2;Temp;Humidity;BMP_temperature;BMP_pressure;BME280_temperature;BME280_humidity;BME280_pressure;Samples;Min_cycle;Max_cycle;Signal;HPM_P1;HPM_P2
2023/12/06 00:00:14;;;;;;;82.95;35.03;;;;;;;-4.10;85.55;100445.91;1803147;79;25593;-56
2023/12/06 00:02:43;;;;;;;85.15;36.20;;;;;;;-4.08;85.58;100439.09;1803208;79;25394;-55
2023/12/06 00:05:10;;;;;;;80.80;31.93;;;;;;;-4.09;85.56;100430.34;1803204;79;25394;-56
2023/12/06 00:07:40;;;;;;;80.25;33.38;;;;;;;-4.08;85.61;100429.33;1803198;79;28467;-54
2023/12/06 00:10:09;;;;;;;88.65;35.28;;;;;;;-4.07;85.66;100440.70;1803215;79;32703;-55
2023/12/06 00:12:35;;;;;;;82.95;34.35;;;;;;;-4.07;85.55;100437.56;1803319;79;25620;-53
2023/12/06 00:15:04;;;;;;;82.85;33.73;;;;;;;-4.04;85.66;100431.84;1803018;79;25625;-52
2023/12/06 00:17:31;;;;;;;79.90;33.88;;;;;;;-3.99;85.82;100440.47;1803232;79;25545;-53
2023/12/06 00:19:58;;;;;;;86.55;36.30;;;;;;;-4.00;85.72;100443.63;1803048;79;27425;-51
2023/12/06 00:22:24;;;;;;;83.03;35.45;;;;;;;-4.00;85.69;100442.80;1802959;79;26023;-51
2023/12/06 00:24:53;;;;;;;79.25;33.18;;;;;;;-4.01;85.67;100449.92;1803013;79;25605;-51
2023/12/06 00:27:20;;;;;;;78.97;32.98;;;;;;;-4.00;85.66;100443.63;1802804;79;25920;-51
2023/12/06 00:29:49;;;;;;;78.57;32.23;;;;;;;-3.98;85.64;100446.87;1803188;79;25475;-56
2023/12/06 00:32:17;;;;;;;72.62;32.85;;;;;;;-3.96;85.81;100446.67;1803037;79;28114;-55
2023/12/06 00:34:43;;;;;;;88.62;35.38;;;;;;;-3.98;85.70;100442.91;1802973;79;26122;-52
2023/12/06 00:37:10;;;;;;;79.77;33.67;;;;;;;-3.98;85.73;100447.39;1803040;79;25525;-54
2023/12/06 00:39:36;;;;;;;85.60;33.63;;;;;;;-3.94;85.89;100440.66;1803007;79;26392;-55
2023/12/06 00:42:04;;;;;;;80.28;34.85;;;;;;;-3.93;86.12;100440.97;1803054;79;25624;-53
2023/12/06 00:44:31;;;;;;;79.62;34.55;;;;;;;-3.92;86.01;100442.57;1803142;79;28028;-53
2023/12/06 00:46:57;;;;;;;84.37;34.43;;;;;;;-3.88;85.97;100449.08;1803107;79;25776;-52
2023/12/06 00:49:24;;;;;;;75.32;32.42;;;;;;;-3.86;86.00;100449.67;1803214;79;25384;-53
2023/12/06 00:51:51;;;;;;;80.57;33.08;;;;;;;-3.83;86.06;100449.27;1803177;79;26438;-51
2023/12/06 00:54:18;;;;;;;76.85;32.08;;;;;;;-3.84;85.95;100448.14;1803252;79;25573;-51
2023/12/06 00:56:44;;;;;;;80.97;32.85;;;;;;;-3.84;85.93;100451.59;1803152;78;27620;-55
2023/12/06 00:59:12;;;;;;;78.22;33.45;;;;;;;-3.85;86.04;100443.34;1803206;79;25538;-52
2023/12/06 01:01:40;;;;;;;81.85;32.93;;;;;;;-3.83;86.11;100449.27;1803220;79;25466;-55
2023/12/06 01:04:07;;;;;;;83.52;32.53;;;;;;;-3.81;86.24;100451.17;1803393;79;25855;-56
2023/12/06 01:06:35;;;;;;;75.78;31.50;;;;;;;-3.79;86.29;100454.41;1803216;79;25557;-53
2023/12/06 01:09:02;;;;;;;79.27;33.15;;;;;;;-3.78;86.17;100453.41;1803200;79;27462;-53
2023/12/06 01:11:29;;;;;;;82.80;33.90;;;;;;;-3.77;86.27;100458.97;1803158;79;25372;-56
2023/12/06 01:13:56;;;;;;;83.80;32.93;;;;;;;-3.74;86.27;100454.31;1803194;79;25595;-52
2023/12/06 01:16:23;;;;;;;87.02;36.03;;;;;;;-3.71;86.37;100455.19;1803163;79;26160;-53
2023/12/06 01:18:51;;;;;;;78.15;32.28;;;;;;;-3.69;86.40;100457.14;1803210;79;25371;-54
2023/12/06 01:21:18;;;;;;;76.07;31.65;;;;;;;-3.67;86.37;100458.53;1803198;79;28097;-54
2023/12/06 01:23:44;;;;;;;80.55;32.00;;;;;;;-3.65;86.40;100455.69;1803079;79;25511;-53
2023/12/06 01:26:11;;;;;;;80.25;33.40;;;;;;;-3.64;86.27;100463.41;1803147;79;25574;-54
2023/12/06 01:28:38;;;;;;;78.28;32.20;;;;;;;-3.62;86.36;100467.17;1803165;79;25420;-52
2023/12/06 01:31:07;;;;;;;82.78;34.50;;;;;;;-3.64;86.37;100462.61;1803218;79;25399;-52
2023/12/06 01:33:35;;;;;;;74.53;30.82;;;;;;;-3.62;86.40;100465.33;1803351;79;27462;-55
2023/12/06 01:36:02;;;;;;;71.92;30.80;;;;;;;-3.63;86.44;100466.85;1803106;79;25608;-55
2023/12/06 01:38:31;;;;;;;70.42;30.90;;;;;;;-3.64;86.36;100459.96;1803181;79;25239;-56
2023/12/06 01:40:59;;;;;;;75.77;30.57;;;;;;;-3.66;86.37;100457.52;1803420;79;26370;-52
2023/12/06 01:43:26;;;;;;;70.15;30.12;;;;;;;-3.66;86.35;100457.52;1803174;79;25450;-54
2023/12/06 01:45:52;;;;;;;75.78;30.50;;;;;;;-3.66;86.45;100466.78;1782758;79;27656;-54
2023/12/06 01:48:22;;;;;;;69.70;28.23;;;;;;;-3.67;86.53;100458.53;1803094;79;25379;-51
2023/12/06 01:50:52;;;;;;;72.32;29.95;;;;;;;-3.64;86.52;100467.37;1803202;79;25451;-54
2023/12/06 01:53:19;;;;;;;70.83;30.10;;;;;;;-3.64;86.51;100462.61;1803155;79;25478;-53
2023/12/06 01:55:47;;;;;;;65.87;29.85;;;;;;;-3.62;86.58;100471.13;1803058;78;25473;-53
2023/12/06 01:58:15;;;;;;;78.97;30.85;;;;;;;-3.65;86.41;100461.77;1803336;79;27502;-54
2023/12/06 02:00:46;;;;;;;74.07;31.55;;;;;;;-3.62;86.51;100465.84;1803071;79;26191;-53
2023/12/06 02:03:16;;;;;;;74.03;28.80;;;;;;;-3.63;86.49;100466.85;1803287;79;25359;-53
2023/12/06 02:05:45;;;;;;;68.28;29.07;;;;;;;-3.62;86.52;100471.94;1803170;79;26314;-56
2023/12/06 02:08:13;;;;;;;71.70;31.10;;;;;;;-3.66;86.61;100466.78;1803305;79;25593;-53
2023/12/06 02:10:40;;;;;;;73.78;30.52;;;;;;;-3.68;86.66;100466.16;1803142;79;27542;-56
2023/12/06 02:13:08;;;;;;;66.67;30.37;;;;;;;-3.68;86.76;100468.00;1803027;79;25733;-55
2023/12/06 02:15:36;;;;;;;65.50;29.00;;;;;;;-3.67;86.69;100465.66;1803135;79;25435;-54
2023/12/06 02:18:05;;;;;;;64.62;28.50;;;;;;;-3.67;86.98;100473.59;1803079;79;26164;-54
2023/12/06 02:20:34;;;;;;;73.02;30.97;;;;;;;-3.69;86.71;100474.33;1803291;79;25548;-52
2023/12/06 02:23:05;;;;;;;64.03;28.30;;;;;;;-3.70;86.81;100470.05;1803320;79;27483;-51
2023/12/06 02:25:32;;;;;;;70.57;28.62;;;;;;;-3.72;86.89;100473.41;1803077;79;25594;-52
2023/12/06 02:28:00;;;;;;;73.62;30.43;;;;;;;-3.73;86.91;100468.62;1803189;79;25600;-51
2023/12/06 02:30:27;;;;;;;71.95;28.67;;;;;;;-3.71;86.98;100473.70;1803088;79;26114;-55
2023/12/06 02:32:55;;;;;;;68.20;29.42;;;;;;;-3.73;87.05;100475.23;1803164;79;25581;-52
2023/12/06 02:35:38;;;;;;;69.03;29.93;;;;;;;-3.72;87.00;100469.45;1803417;79;28518;-52
2023/12/06 02:38:08;;;;;;;67.12;27.52;;;;;;;-3.72;87.11;100478.70;1802750;79;25756;-53
2023/12/06 02:40:39;;;;;;;60.30;27.65;;;;;;;-3.71;87.01;100469.73;1803426;79;25386;-52
2023/12/06 02:43:07;;;;;;;69.55;30.82;;;;;;;-3.69;87.09;100473.00;1803120;79;26005;-53
2023/12/06 02:45:35;;;;;;;69.58;29.87;;;;;;;-3.70;87.13;100468.20;1803109;79;25549;-52
2023/12/06 02:48:05;;;;;;;67.67;28.55;;;;;;;-3.70;87.18;100467.40;1803107;79;27468;-51
2023/12/06 02:50:33;;;;;;;63.15;27.77;;;;;;;-3.70;87.03;100469.52;1803086;79;25558;-52
2023/12/06 02:53:01;;;;;;;67.15;28.80;;;;;;;-3.71;87.01;100469.73;1803114;79;25387;-54
2023/12/06 02:55:28;;;;;;;64.25;27.55;;;;;;;-3.72;86.99;100473.41;1801705;78;25544;-55
2023/12/06 02:57:56;;;;;;;68.15;28.60;;;;;;;-3.70;87.05;100477.98;1829846;78;25563;-51
2023/12/06 03:00:24;;;;;;;57.13;25.62;;;;;;;-3.70;87.02;100475.33;1829817;78;27453;-53
2023/12/06 03:02:52;;;;;;;60.40;27.15;;;;;;;-3.72;86.99;100474.22;1829695;78;25813;-53
2023/12/06 03:05:20;;;;;;;62.62;27.58;;;;;;;-3.74;86.97;100476.27;1829867;78;25581;-52
2023/12/06 03:07:51;;;;;;;63.02;26.95;;;;;;;-3.75;87.04;100477.27;1829750;78;25458;-52
2023/12/06 03:10:19;;;;;;;62.13;27.35;;;;;;;-3.75;87.07;100479.92;1829861;78;25386;-52
2023/12/06 03:12:47;;;;;;;64.70;28.97;;;;;;;-3.75;86.99;100491.81;1830053;78;27506;-52
2023/12/06 03:15:15;;;;;;;63.95;27.48;;;;;;;-3.74;87.01;100487.36;1829682;78;25384;-51
2023/12/06 03:17:43;;;;;;;67.20;28.77;;;;;;;-3.73;87.21;100492.93;1829735;78;25391;-52
2023/12/06 03:20:12;;;;;;;63.40;28.15;;;;;;;-3.74;87.04;100490.00;1829902;78;26226;-53
2023/12/06 03:22:40;;;;;;;63.60;27.93;;;;;;;-3.77;87.13;100499.95;1830071;78;25578;-52
2023/12/06 03:25:08;;;;;;;67.35;28.65;;;;;;;-3.76;87.10;100494.17;1829743;78;27494;-54
2023/12/06 03:27:36;;;;;;;64.67;28.17;;;;;;;-3.77;87.01;100492.02;1795128;78;25464;-52
2023/12/06 03:30:06;;;;;;;60.83;27.42;;;;;;;-3.78;86.91;100498.34;1829761;78;25450;-52
2023/12/06 03:32:33;;;;;;;63.28;27.55;;;;;;;-3.80;86.86;100497.75;1829786;78;25544;-54
2023/12/06 03:35:01;;;;;;;60.52;27.13;;;;;;;-3.80;87.01;100495.11;1829792;78;25379;-55
2023/12/06 03:37:28;;;;;;;60.88;27.30;;;;;;;-3.80;86.91;100492.47;1829784;78;27982;-56
2023/12/06 03:39:57;;;;;;;62.93;27.52;;;;;;;-3.79;86.98;100488.78;1829723;78;26161;-52
2023/12/06 03:42:26;;;;;;;58.68;24.85;;;;;;;-3.76;87.01;100483.60;1829767;78;25415;-53
2023/12/06 03:44:54;;;;;;;43.20;19.85;;;;;;;-3.76;86.97;100475.15;1829967;78;25544;-52
2023/12/06 03:47:21;;;;;;;62.17;26.87;;;;;;;-3.76;87.05;100486.24;1829779;78;25569;-52
2023/12/06 03:49:47;;;;;;;59.98;26.12;;;;;;;-3.75;87.01;100490.49;1829751;78;27846;-52
2023/12/06 03:52:16;;;;;;;55.23;24.32;;;;;;;-3.76;86.81;100502.91;1829664;78;25824;-53
2023/12/06 03:54:44;;;;;;;63.38;27.75;;;;;;;-3.76;86.90;100501.59;1829916;78;25469;-51
2023/12/06 03:57:13;;;;;;;59.60;26.45;;;;;;;-3.67;86.93;100514.58;1821193;78;26027;-52
2023/12/06 03:59:40;;;;;;;55.63;26.17;;;;;;;-3.74;86.90;100504.02;1816787;79;25383;-55
2023/12/06 04:02:08;;;;;;;61.77;26.75;;;;;;;-3.74;86.89;100506.67;1816707;79;28339;-52
2023/12/06 04:04:35;;;;;;;56.45;26.02;;;;;;;-3.75;86.75;100505.03;1816614;79;26122;-55
2023/12/06 04:07:04;;;;;;;57.90;27.02;;;;;;;-3.77;86.67;100497.83;1816724;79;25654;-52
2023/12/06 04:09:30;;;;;;;59.55;25.12;;;;;;;-3.79;86.79;100492.75;1816692;79;25471;-54
2023/12/06 04:11:57;;;;;;;59.03;25.27;;;;;;;-3.79;86.76;100490.10;1816732;79;25462;-53
2023/12/06 04:14:24;;;;;;;57.95;25.37;;;;;;;-3.77;86.81;100493.34;1816754;79;27483;-53
2023/12/06 04:16:52;;;;;;;57.93;25.72;;;;;;;-3.76;86.73;100494.17;1816575;79;26175;-53
2023/12/06 04:19:20;;;;;;;55.55;24.72;;;;;;;-3.74;86.88;100492.13;1816764;79;25434;-54
2023/12/06 04:21:46;;;;;;;60.33;28.02;;;;;;;-3.73;86.78;100493.73;1816707;79;26184;-53
2023/12/06 04:24:15;;;;;;;54.73;25.23;;;;;;;-3.73;86.67;100488.97;1816672;79;25176;-50
2023/12/06 04:26:43;;;;;;;55.00;24.40;;;;;;;-3.73;86.73;100494.25;1816731;79;27373;-52
2023/12/06 04:29:10;;;;;;;59.40;26.42;;;;;;;-3.74;86.71;100492.13;1816744;79;25482;-52
2023/12/06 04:31:38;;;;;;;51.35;24.07;;;;;;;-3.73;86.74;100489.77;1816719;79;25456;-53
2023/12/06 04:34:04;;;;;;;59.95;26.02;;;;;;;-3.74;86.75;100479.43;1786421;79;26314;-54
2023/12/06 04:36:31;;;;;;;55.12;24.90;;;;;;;-3.75;86.69;100475.95;1816734;79;25382;-55
2023/12/06 04:38:59;;;;;;;60.30;26.45;;;;;;;-3.72;86.80;100475.54;1816731;79;26985;-55
2023/12/06 04:41:26;;;;;;;58.05;26.70;;;;;;;-3.71;86.83;100477.17;1816652;79;25518;-55
2023/12/06 04:43:53;;;;;;;59.13;26.62;;;;;;;-3.70;86.93;100476.66;1787039;79;25617;-55
2023/12/06 04:46:20;;;;;;;55.15;25.02;;;;;;;-3.70;86.84;100476.13;1816805;79;25507;-53
2023/12/06 04:48:47;;;;;;;57.95;26.25;;;;;;;-3.69;86.89;100480.41;1816837;79;25565;-53
2023/12/06 04:51:16;;;;;;;54.20;24.50;;;;;;;-3.66;86.86;100484.45;1786873;79;27893;-51
2023/12/06 04:53:43;;;;;;;58.90;27.82;;;;;;;-3.66;86.99;100487.09;1816624;79;25363;-52
2023/12/06 04:56:12;;;;;;;56.45;26.05;;;;;;;-3.68;86.73;100485.98;1815323;79;25763;-57
2023/12/06 04:58:39;;;;;;;59.90;26.53;;;;;;;-3.67;86.78;100486.30;1803378;79;25699;-52
2023/12/06 05:01:06;;;;;;;58.35;26.02;;;;;;;-3.66;86.87;100484.45;1803058;79;25379;-53
2023/12/06 05:03:32;;;;;;;53.92;25.40;;;;;;;-3.65;86.89;100484.77;1803022;79;28081;-52
2023/12/06 05:06:00;;;;;;;51.88;24.18;;;;;;;-3.68;86.92;100475.41;1802895;79;26115;-55
2023/12/06 05:08:27;;;;;;;61.37;26.73;;;;;;;-3.68;86.85;100469.31;1803044;79;25526;-51
2023/12/06 05:10:55;;;;;;;54.98;23.98;;;;;;;-3.67;86.82;100469.11;1802996;79;25585;-51
2023/12/06 05:13:24;;;;;;;59.93;25.48;;;;;;;-3.69;86.91;100469.03;1803076;79;25536;-52
2023/12/06 05:15:51;;;;;;;59.60;26.95;;;;;;;-3.66;86.83;100474.71;1803031;79;28013;-51
2023/12/06 05:18:20;;;;;;;52.67;25.05;;;;;;;-3.67;86.92;100471.75;1802890;79;25931;-51
2023/12/06 05:20:50;;;;;;;51.13;25.25;;;;;;;-3.66;86.90;100471.23;1803014;79;25449;-55
2023/12/06 05:23:18;;;;;;;49.75;24.77;;;;;;;-3.65;86.94;100464.94;1802995;79;25493;-51
2023/12/06 05:25:46;;;;;;;61.13;26.35;;;;;;;-3.63;87.03;100465.01;1803032;79;25438;-50
2023/12/06 05:28:14;;;;;;;59.23;26.52;;;;;;;-3.61;87.05;100460.34;1803235;79;28189;-54
2023/12/06 05:30:43;;;;;;;57.78;26.55;;;;;;;-3.61;87.06;100464.31;1803056;79;25988;-51
2023/12/06 05:33:11;;;;;;;57.60;25.70;;;;;;;-3.58;87.08;100473.12;1803372;79;25372;-55
2023/12/06 05:35:40;;;;;;;55.15;26.62;;;;;;;-3.59;87.17;100468.08;1803155;79;25946;-52
2023/12/06 05:38:07;;;;;;;;;;;;;;;-3.59;87.16;100460.14;1805922;79;25454;-53
2023/12/06 05:40:35;;;;;;;58.73;25.37;;;;;;;-3.58;87.26;100459.91;1803180;79;27571;-50
2023/12/06 05:43:02;;;;;;;55.05;25.75;;;;;;;-3.57;87.25;100461.53;1803023;79;26176;-51
2023/12/06 05:45:31;;;;;;;52.78;25.57;;;;;;;-3.58;87.33;100453.81;1803171;79;25511;-54
2023/12/06 05:47:58;;;;;;;60.35;26.57;;;;;;;-3.53;87.28;100455.83;1803105;79;25518;-52
2023/12/06 05:50:26;;;;;;;53.55;25.75;;;;;;;-3.53;87.43;100456.63;1803174;79;25479;-50
2023/12/06 05:52:53;;;;;;;52.78;24.40;;;;;;;-3.53;87.38;100465.89;1803183;79;27355;-51
2023/12/06 05:55:21;;;;;;;61.50;25.12;;;;;;;-3.51;87.39;100459.06;1803150;79;25460;-51
2023/12/06 05:57:51;;;;;;;59.33;25.82;;;;;;;-3.47;87.47;100470.34;1803077;78;25524;-54
2023/12/06 06:00:19;;;;;;;55.20;24.07;;;;;;;-3.46;87.51;100471.95;1803090;79;26298;-52
2023/12/06 06:02:48;;;;;;;52.35;24.27;;;;;;;-3.46;87.48;100459.24;1803234;79;25475;-51
2023/12/06 06:05:17;;;;;;;52.80;25.37;;;;;;;-3.44;87.46;100471.25;1803099;79;27458;-52
2023/12/06 06:07:45;;;;;;;56.42;24.67;;;;;;;-3.43;87.47;100463.59;1782707;79;32821;-54
2023/12/06 06:10:14;;;;;;;54.53;25.43;;;;;;;-3.39;87.55;100463.98;1803412;79;25475;-52
2023/12/06 06:12:40;;;;;;;52.60;24.67;;;;;;;-3.41;87.53;100466.83;1803092;79;25471;-51
2023/12/06 06:15:09;;;;;;;52.25;23.52;;;;;;;-3.39;87.61;100471.91;1803161;79;25367;-55
2023/12/06 06:17:36;;;;;;;47.53;23.10;;;;;;;-3.39;87.57;100471.91;1803266;79;27516;-51
2023/12/06 06:20:05;;;;;;;50.15;23.85;;;;;;;-3.38;87.55;100473.55;1803055;79;25443;-51
2023/12/06 06:22:32;;;;;;;55.30;24.52;;;;;;;-3.38;87.65;100479.64;1783101;79;25490;-52
2023/12/06 06:25:00;;;;;;;50.38;24.70;;;;;;;-3.35;87.62;100481.06;1803154;79;25643;-52
2023/12/06 06:27:28;;;;;;;54.60;24.87;;;;;;;-3.34;87.70;100487.95;1803116;79;25389;-56
2023/12/06 06:29:58;;;;;;;47.88;24.80;;;;;;;-3.30;87.65;100502.89;1803117;79;28487;-52
2023/12/06 06:32:24;;;;;;;51.35;24.87;;;;;;;-3.31;87.64;100492.83;1803213;79;33668;-54
2023/12/06 06:34:52;;;;;;;52.98;23.62;;;;;;;-3.29;87.66;100493.42;1803109;79;25555;-55
2023/12/06 06:37:20;;;;;;;53.52;24.25;;;;;;;-3.28;87.62;100495.06;1802145;79;26372;-54
2023/12/06 06:39:47;;;;;;;47.93;23.12;;;;;;;-3.26;87.85;100489.04;1802004;79;25987;-54
2023/12/06 06:42:14;;;;;;;56.20;24.95;;;;;;;-3.26;87.58;100501.46;1801958;79;28135;-54
2023/12/06 06:44:41;;;;;;;55.50;26.37;;;;;;;-3.26;87.53;100501.46;1801851;79;25715;-53
2023/12/06 06:47:08;;;;;;;53.90;25.75;;;;;;;-3.26;87.54;100499.62;1802107;79;25773;-52
2023/12/06 06:49:35;;;;;;;53.90;24.25;;;;;;;-3.23;87.53;100497.08;1802039;79;26462;-53
2023/12/06 06:52:05;;;;;;;47.88;23.62;;;;;;;-3.21;87.62;100495.02;1802685;79;25526;-55
2023/12/06 06:54:35;;;;;;;60.40;26.50;;;;;;;-3.22;87.47;100492.90;1803266;79;28019;-52
2023/12/06 06:57:04;;;;;;;56.58;25.12;;;;;;;-3.22;87.44;100492.90;1803167;78;25775;-52
2023/12/06 06:59:31;;;;;;;50.45;23.62;;;;;;;-3.19;87.47;100507.00;1802262;79;25728;-53
2023/12/06 07:01:58;;;;;;;54.08;25.02;;;;;;;-3.16;87.44;100503.66;1802100;79;26505;-55
2023/12/06 07:04:27;;;;;;;54.50;25.82;;;;;;;-3.14;87.49;100510.34;1803139;79;25442;-52
2023/12/06 07:06:53;;;;;;;47.93;23.67;;;;;;;-3.12;87.49;100512.25;1803226;79;27383;-53
2023/12/06 07:09:23;;;;;;;61.30;25.62;;;;;;;-3.10;87.37;100511.55;1803036;79;25431;-52
2023/12/06 07:11:51;;;;;;;;;;;;;;;-3.08;87.30;100513.47;1805782;79;25375;-52
2023/12/06 07:14:20;;;;;;;54.77;24.63;;;;;;;-3.05;87.31;100508.25;1803083;79;26438;-55
2023/12/06 07:16:47;;;;;;;55.28;24.98;;;;;;;-3.01;87.42;100510.78;1803190;79;25450;-55
2023/12/06 07:19:16;;;;;;;56.02;26.90;;;;;;;-3.02;87.22;100509.95;1803114;79;28078;-51
2023/12/06 07:21:45;;;;;;;62.08;26.65;;;;;;;-3.02;87.22;100503.34;1803111;79;25666;-51
2023/12/06 07:24:13;;;;;;;58.13;26.33;;;;;;;-2.96;87.19;100497.72;1782867;79;25554;-54
2023/12/06 07:26:42;;;;;;;56.05;25.72;;;;;;;-2.95;87.11;100503.30;1803209;79;26392;-52
2023/12/06 07:29:12;;;;;;;58.50;26.90;;;;;;;-2.91;87.15;100505.00;1803285;79;25394;-52
2023/12/06 07:31:41;;;;;;;54.88;25.45;;;;;;;-2.88;87.11;100508.55;1803112;79;27458;-54
2023/12/06 07:34:07;;;;;;;53.40;27.13;;;;;;;-2.87;86.94;100517.59;1803062;79;25421;-53
2023/12/06 07:36:36;;;;;;;59.38;27.55;;;;;;;-2.86;86.73;100523.20;1803150;79;25341;-52
2023/12/06 07:39:07;;;;;;;54.85;26.33;;;;;;;-2.88;86.47;100514.67;1803174;79;25562;-54
2023/12/06 07:41:36;;;;;;;60.98;28.60;;;;;;;-2.89;86.35;100517.01;1803257;79;25576;-56
2023/12/06 07:44:05;;;;;;;53.98;25.45;;;;;;;-2.90;86.30;100525.96;1802962;79;28223;-53
2023/12/06 07:46:31;;;;;;;57.05;26.50;;;;;;;-2.93;85.96;100526.91;1802427;79;25660;-54
2023/12/06 07:49:00;;;;;;;55.73;26.15;;;;;;;-2.97;86.09;100528.37;1803068;79;25569;-51
2023/12/06 07:51:29;;;;;;;52.67;25.45;;;;;;;-2.99;86.16;100534.39;1803166;79;26324;-52
2023/12/06 07:53:57;;;;;;;51.25;23.42;;;;;;;-2.93;86.27;100540.95;1803239;79;25256;-51
2023/12/06 07:56:27;;;;;;;56.25;27.55;;;;;;;-2.97;85.92;100545.05;1803204;79;27371;-52
2023/12/06 07:58:56;;;;;;;54.27;26.27;;;;;;;-3.01;85.90;100542.02;1803050;78;26170;-51
2023/12/06 08:01:31;;;;;;;59.53;27.60;;;;;;;-2.99;86.07;100544.98;1803249;79;35006;-51
2023/12/06 08:03:55;;;;;;;56.13;27.00;;;;;;;-2.95;86.41;100553.59;1781497;79;26019;-51
2023/12/06 08:06:23;;;;;;;60.03;27.52;;;;;;;-2.91;86.59;100546.03;1803044;79;25669;-51
2023/12/06 08:08:53;;;;;;;60.60;27.93;;;;;;;-2.95;85.83;100550.14;1803317;79;28574;-51
2023/12/06 08:11:21;;;;;;;57.48;26.52;;;;;;;-2.97;85.75;100552.19;1803004;79;25538;-55
2023/12/06 08:13:49;;;;;;;60.65;27.77;;;;;;;-3.01;85.74;100545.19;1803129;79;25402;-52
2023/12/06 08:16:18;;;;;;;55.50;26.23;;;;;;;-3.04;85.68;100549.58;1803038;79;26581;-53
2023/12/06 08:18:47;;;;;;;57.58;26.20;;;;;;;-3.02;85.79;100547.53;1782581;79;25508;-53
2023/12/06 08:21:16;;;;;;;54.80;26.73;;;;;;;-3.07;85.47;100544.19;1803194;79;28300;-52
2023/12/06 08:23:45;;;;;;;55.30;25.90;;;;;;;-3.13;85.56;100545.05;1803056;79;25614;-55
2023/12/06 08:26:12;;;;;;;56.10;25.23;;;;;;;-3.13;85.71;100545.55;1803156;79;27011;-53
2023/12/06 08:28:40;;;;;;;57.75;27.85;;;;;;;-3.14;85.70;100550.03;1802994;79;26469;-55
2023/12/06 08:31:09;;;;;;;52.25;25.37;;;;;;;-3.16;85.60;100549.44;1803067;79;25391;-54
2023/12/06 08:33:35;;;;;;;61.37;27.65;;;;;;;-3.17;85.73;100549.13;1803213;79;28296;-53
2023/12/06 08:36:05;;;;;;;58.90;27.17;;;;;;;-3.21;85.67;100555.87;1802952;79;25590;-54
2023/12/06 08:38:32;;;;;;;56.25;26.97;;;;;;;-3.20;85.64;100557.52;1782708;79;25457;-51
2023/12/06 08:41:00;;;;;;;58.13;28.05;;;;;;;-3.21;85.63;100565.14;1803085;79;26079;-52
2023/12/06 08:43:29;;;;;;;56.48;26.77;;;;;;;-3.23;85.67;100557.41;1803159;79;25418;-51
2023/12/06 08:45:56;;;;;;;58.68;26.35;;;;;;;-3.25;85.69;100558.14;1803272;79;30251;-52
2023/12/06 08:48:22;;;;;;;55.23;24.50;;;;;;;-3.26;85.56;100568.41;1802980;79;25940;-52
2023/12/06 08:50:51;;;;;;;47.90;23.65;;;;;;;-3.28;85.12;100570.45;1803192;79;25524;-51
2023/12/06 08:53:18;;;;;;;54.27;23.98;;;;;;;-3.30;85.20;100572.52;1802994;79;25352;-52
2023/12/06 08:55:46;;;;;;;52.43;23.77;;;;;;;-3.35;85.02;100568.36;1802980;79;25431;-54
2023/12/06 08:58:12;;;;;;;50.73;23.02;;;;;;;-3.36;85.01;100573.34;1802916;78;27916;-51
2023/12/06 09:00:39;;;;;;;61.63;26.48;;;;;;;-3.38;85.03;100572.74;1802997;79;25372;-53
2023/12/06 09:03:06;;;;;;;60.52;25.85;;;;;;;-3.43;84.82;100569.39;1803035;79;25633;-52
2023/12/06 09:05:34;;;;;;;55.90;24.90;;;;;;;-3.49;84.94;100567.61;1803177;79;25517;-53
2023/12/06 09:08:06;;;;;;;50.85;24.65;;;;;;;-3.48;85.28;100565.77;1803248;79;25398;-54
2023/12/06 09:10:34;;;;;;;56.70;25.40;;;;;;;-3.45;85.83;100564.83;1803240;79;27480;-51
2023/12/06 09:13:01;;;;;;;61.98;26.35;;;;;;;-3.38;85.81;100563.48;1803244;79;25588;-53
2023/12/06 09:15:29;;;;;;;56.92;25.75;;;;;;;-3.33;85.85;100564.98;1803261;79;25399;-53
2023/12/06 09:17:57;;;;;;;60.92;26.52;;;;;;;-3.32;85.75;100560.50;1803277;79;26436;-55
2023/12/06 09:20:24;;;;;;;61.50;26.42;;;;;;;-3.28;85.83;100560.39;1803205;79;25604;-53
2023/12/06 09:22:50;;;;;;;59.42;25.65;;;;;;;-3.23;85.73;100556.61;1803156;79;27360;-51
2023/12/06 09:25:19;;;;;;;52.58;24.60;;;;;;;-3.22;85.61;100553.75;1803092;79;25539;-55
2023/12/06 09:27:45;;;;;;;58.42;26.20;;;;;;;-3.17;85.62;100562.36;1803237;79;25578;-52
2023/12/06 09:30:15;;;;;;;56.75;26.87;;;;;;;-3.14;85.54;100567.23;1803118;79;25842;-54
2023/12/06 09:32:43;;;;;;;55.67;27.37;;;;;;;-3.15;85.46;100567.44;1803187;79;25617;-56
2023/12/06 09:35:10;;;;;;;56.42;25.97;;;;;;;-3.09;85.69;100568.73;1782433;79;27836;-54
2023/12/06 09:37:43;;;;;;;55.25;26.30;;;;;;;-3.04;85.50;100571.56;1803041;79;25803;-52
2023/12/06 09:40:13;;;;;;;57.65;26.20;;;;;;;-3.05;85.19;100566.47;1803174;79;25387;-56
2023/12/06 09:42:45;;;;;;;61.50;27.10;;;;;;;-3.04;85.26;100558.84;1803174;79;25593;-54
2023/12/06 09:45:16;;;;;;;60.88;27.35;;;;;;;-2.99;85.59;100555.57;1782566;79;25385;-54
2023/12/06 09:47:46;;;;;;;61.28;26.27;;;;;;;-2.93;85.60;100552.86;1803167;79;27354;-55
2023/12/06 09:50:13;;;;;;;56.00;25.97;;;;;;;-2.91;85.27;100565.39;1803184;79;25589;-54
2023/12/06 09:52:43;;;;;;;55.43;25.57;;;;;;;-2.93;84.76;100566.09;1803129;79;25357;-52
2023/12/06 09:55:11;;;;;;;49.18;24.63;;;;;;;-2.96;84.64;100563.89;1803117;79;25500;-54
2023/12/06 09:57:41;;;;;;;53.92;24.85;;;;;;;-3.01;84.57;100559.23;1803265;79;25517;-55
2023/12/06 10:00:16;;;;;;;62.80;27.90;;;;;;;-3.02;84.73;100562.89;1803078;78;28467;-53
2023/12/06 10:02:55;;;;;;;62.67;28.67;;;;;;;-3.06;84.78;100555.61;1803071;79;25545;-54
2023/12/06 10:05:24;;;;;;;61.28;27.67;;;;;;;-3.04;84.93;100553.03;1803101;79;25450;-52
2023/12/06 10:07:51;;;;;;;62.80;27.32;;;;;;;-2.97;85.31;100554.32;1803246;79;26501;-53
2023/12/06 10:10:22;;;;;;;55.17;26.25;;;;;;;-2.89;85.64;100546.13;1803131;79;25418;-52
2023/12/06 10:12:53;;;;;;;59.95;26.00;;;;;;;-2.85;85.14;100551.28;1803122;79;27790;-54
2023/12/06 10:15:23;;;;;;;57.25;25.97;;;;;;;-2.82;85.36;100556.16;1803056;79;26224;-54
2023/12/06 10:17:51;;;;;;;58.87;25.55;;;;;;;-2.73;85.59;100551.41;1803131;79;25442;-51
2023/12/06 10:20:22;;;;;;;95.75;49.42;;;;;;;-2.70;84.85;100545.69;1803125;79;25812;-51
2023/12/06 10:22:50;;;;;;;99.85;49.93;;;;;;;-2.69;85.15;100547.33;1803089;79;25468;-51
2023/12/06 10:25:16;;;;;;;66.85;29.63;;;;;;;-2.61;85.27;100548.88;1803144;79;27797;-54
2023/12/06 10:27:45;;;;;;;50.60;25.50;;;;;;;-2.53;85.18;100550.47;1803078;79;25501;-49
2023/12/06 10:30:22;;;;;;;50.90;23.92;;;;;;;-2.53;84.45;100549.95;1803122;79;25469;-51
2023/12/06 10:32:54;;;;;;;57.98;26.33;;;;;;;-2.51;84.57;100547.89;1803213;79;25610;-50
2023/12/06 10:35:25;;;;;;;53.05;26.73;;;;;;;-2.53;84.15;100544.65;1803152;79;25365;-55
2023/12/06 10:37:53;;;;;;;61.60;27.73;;;;;;;-2.55;83.70;100546.70;1803114;79;27887;-52
2023/12/06 10:40:23;;;;;;;53.52;26.02;;;;;;;-2.56;83.95;100539.78;1803050;79;25431;-55
2023/12/06 10:42:55;;;;;;;57.98;26.20;;;;;;;-2.53;84.08;100543.84;1803097;79;25367;-52
2023/12/06 10:45:23;;;;;;;58.48;28.50;;;;;;;-2.56;84.09;100546.40;1803099;79;25535;-52
2023/12/06 10:47:53;;;;;;;58.10;27.82;;;;;;;-2.53;84.04;100539.88;1803176;79;25427;-53
2023/12/06 10:50:23;;;;;;;56.45;28.30;;;;;;;-2.50;84.26;100538.13;1803176;79;27448;-51
2023/12/06 10:52:53;;;;;;;57.17;27.60;;;;;;;-2.44;84.57;100534.06;1803077;79;25694;-54
2023/12/06 10:55:23;;;;;;;57.00;27.17;;;;;;;-2.36;84.98;100533.52;1782631;79;25530;-52
2023/12/06 10:57:53;;;;;;;58.13;28.73;;;;;;;-2.23;85.00;100539.20;1803096;79;25869;-53
2023/12/06 11:00:23;;;;;;;55.10;25.77;;;;;;;-2.15;85.11;100533.09;1827059;78;25558;-51
2023/12/06 11:02:53;;;;;;;54.88;26.37;;;;;;;-2.16;84.06;100527.52;1829723;78;27806;-54
2023/12/06 11:05:24;;;;;;;56.35;26.95;;;;;;;-2.10;84.15;100527.16;1829776;78;25521;-51
2023/12/06 11:08:05;;;;;;;57.45;27.60;;;;;;;-2.04;84.36;100517.50;1829756;78;25592;-53
2023/12/06 11:10:54;;;;;;;60.35;27.13;;;;;;;-1.98;83.94;100529.89;1828252;78;25556;-51
2023/12/06 11:13:56;;;;;;;57.30;27.17;;;;;;;-2.01;83.36;100529.00;1828775;78;25606;-53